sensor_id;sensor_type;location;lat;lon;timestamp;pressure;altitude;pressure_sealevel;temperature;humidity
20971;BME280;10644;48.834;10.088;2023-05-24T00:01:36;96929.22;;;17.80;52.08
20971;BME280;10644;48.834;10.088;2023-05-24T00:04:02;96925.25;;;17.54;52.73
20971;BME280;10644;48.834;10.088;2023-05-24T00:06:27;96934.66;;;17.33;53.00
20971;BME280;10644;48.834;10.088;2023-05-24T00:08:53;96939.03;;;17.32;53.38
20971;BME280;10644;48.834;10.088;2023-05-24T00:11:19;96933.00;;;17.32;53.42
20971;BME280;10644;48.834;10.088;2023-05-24T00:13:48;96937.03;;;17.47;53.04
20971;BME280;10644;48.834;10.088;2023-05-24T00:16:13;96935.72;;;17.52;52.70
20971;BME280;10644;48.834;10.088;2023-05-24T00:18:40;96927.84;;;17.43;52.42
20971;BME280;10644;48.834;10.088;2023-05-24T00:21:07;96930.81;;;17.38;52.63
20971;BME280;10644;48.834;10.088;2023-05-24T00:23:33;96921.94;;;17.52;52.52
20971;BME280;10644;48.834;10.088;2023-05-24T00:25:58;96921.81;;;17.64;52.27
20971;BME280;10644;48.834;10.088;2023-05-24T00:28:25;96921.31;;;17.81;52.03
20971;BME280;10644;48.834;10.088;2023-05-24T00:30:52;96908.59;;;17.89;51.49
20971;BME280;10644;48.834;10.088;2023-05-24T00:33:18;96915.75;;;17.97;51.62
20971;BME280;10644;48.834;10.088;2023-05-24T00:35:43;96924.25;;;17.99;51.52
20971;BME280;10644;48.834;10.088;2023-05-24T00:38:09;96918.13;;;17.89;51.38
20971;BME280;10644;48.834;10.088;2023-05-24T00:40:34;96917.69;;;17.73;51.73
20971;BME280;10644;48.834;10.088;2023-05-24T00:42:59;96909.22;;;17.71;51.56
20971;BME280;10644;48.834;10.088;2023-05-24T00:45:25;96932.66;;;17.58;52.21
20971;BME280;10644;48.834;10.088;2023-05-24T00:47:50;96921.25;;;17.61;52.36
20971;BME280;10644;48.834;10.088;2023-05-24T00:50:16;96922.78;;;17.63;51.98
20971;BME280;10644;48.834;10.088;2023-05-24T00:52:42;96912.53;;;17.62;51.87
20971;BME280;10644;48.834;10.088;2023-05-24T00:55:09;96911.13;;;17.58;51.98
20971;BME280;10644;48.834;10.088;2023-05-24T00:57:35;96910.66;;;17.64;52.06
20971;BME280;10644;48.834;10.088;2023-05-24T01:00:02;96907.94;;;17.54;51.98
20971;BME280;10644;48.834;10.088;2023-05-24T01:02:29;96907.72;;;17.57;51.78
20971;BME280;10644;48.834;10.088;2023-05-24T01:04:54;96905.72;;;17.50;51.90
20971;BME280;10644;48.834;10.088;2023-05-24T01:10:29;96909.72;;;17.54;52.04
20971;BME280;10644;48.834;10.088;2023-05-24T01:15:58;96910.38;;;17.34;52.55
20971;BME280;10644;48.834;10.088;2023-05-24T01:18:31;96901.91;;;17.32;52.87
20971;BME280;10644;48.834;10.088;2023-05-24T01:27:07;96899.09;;;17.02;52.93
20971;BME280;10644;48.834;10.088;2023-05-24T01:29:34;96896.03;;;16.97;53.25
20971;BME280;10644;48.834;10.088;2023-05-24T01:32:01;96894.63;;;17.15;52.77
20971;BME280;10644;48.834;10.088;2023-05-24T01:34:27;96892.03;;;17.04;53.06
20971;BME280;10644;48.834;10.088;2023-05-24T01:36:52;96877.91;;;16.86;53.44
20971;BME280;10644;48.834;10.088;2023-05-24T01:39:19;96896.47;;;16.80;53.34
20971;BME280;10644;48.834;10.088;2023-05-24T01:44:34;96884.00;;;16.74;54.17
20971;BME280;10644;48.834;10.088;2023-05-24T01:47:27;96891.78;;;17.07;53.33
20971;BME280;10644;48.834;10.088;2023-05-24T01:49:56;96878.97;;;17.16;53.52
20971;BME280;10644;48.834;10.088;2023-05-24T01:52:27;96884.28;;;17.37;53.09
20971;BME280;10644;48.834;10.088;2023-05-24T01:54:56;96889.44;;;17.37;52.66
20971;BME280;10644;48.834;10.088;2023-05-24T01:57:22;96896.28;;;17.16;53.16
20971;BME280;10644;48.834;10.088;2023-05-24T01:59:49;96895.31;;;17.17;53.20
20971;BME280;10644;48.834;10.088;2023-05-24T02:02:16;96885.81;;;17.06;52.83
20971;BME280;10644;48.834;10.088;2023-05-24T02:04:41;96894.81;;;16.90;53.59
20971;BME280;10644;48.834;10.088;2023-05-24T02:07:07;96895.19;;;16.96;53.54
20971;BME280;10644;48.834;10.088;2023-05-24T02:09:32;96899.38;;;16.75;53.98
20971;BME280;10644;48.834;10.088;2023-05-24T02:11:58;96890.94;;;16.84;54.15
20971;BME280;10644;48.834;10.088;2023-05-24T02:14:23;96881.19;;;16.88;53.51
20971;BME280;10644;48.834;10.088;2023-05-24T02:16:49;96888.13;;;16.98;53.24
20971;BME280;10644;48.834;10.088;2023-05-24T02:19:15;96887.78;;;16.92;53.59
20971;BME280;10644;48.834;10.088;2023-05-24T02:21:43;96892.84;;;16.82;53.90
20971;BME280;10644;48.834;10.088;2023-05-24T02:24:09;96905.88;;;16.81;53.32
20971;BME280;10644;48.834;10.088;2023-05-24T02:26:37;96893.91;;;16.91;53.03
20971;BME280;10644;48.834;10.088;2023-05-24T02:29:05;96896.09;;;16.62;52.65
20971;BME280;10644;48.834;10.088;2023-05-24T02:31:30;96902.75;;;16.54;52.88
20971;BME280;10644;48.834;10.088;2023-05-24T02:33:57;96907.25;;;16.63;52.67
20971;BME280;10644;48.834;10.088;2023-05-24T02:36:22;96908.19;;;16.62;52.49
20971;BME280;10644;48.834;10.088;2023-05-24T02:38:51;96911.75;;;16.14;53.39
20971;BME280;10644;48.834;10.088;2023-05-24T02:41:17;96915.78;;;16.18;53.07
20971;BME280;10644;48.834;10.088;2023-05-24T02:43:44;96915.81;;;16.29;53.05
20971;BME280;10644;48.834;10.088;2023-05-24T02:46:09;96916.59;;;16.18;53.27
20971;BME280;10644;48.834;10.088;2023-05-24T02:48:35;96899.81;;;16.24;53.21
20971;BME280;10644;48.834;10.088;2023-05-24T02:51:01;96913.22;;;16.29;53.00
20971;BME280;10644;48.834;10.088;2023-05-24T02:53:28;96913.28;;;16.16;53.36
20971;BME280;10644;48.834;10.088;2023-05-24T02:55:53;96909.59;;;15.84;53.76
20971;BME280;10644;48.834;10.088;2023-05-24T02:58:18;96903.41;;;16.10;53.24
20971;BME280;10644;48.834;10.088;2023-05-24T03:00:44;96905.78;;;16.24;52.57
20971;BME280;10644;48.834;10.088;2023-05-24T03:03:09;96908.06;;;16.29;52.27
20971;BME280;10644;48.834;10.088;2023-05-24T03:05:35;96910.91;;;16.37;52.58
20971;BME280;10644;48.834;10.088;2023-05-24T03:08:00;96904.03;;;16.25;52.48
20971;BME280;10644;48.834;10.088;2023-05-24T03:10:26;96909.88;;;16.39;52.16
20971;BME280;10644;48.834;10.088;2023-05-24T03:12:51;96908.88;;;16.53;51.96
20971;BME280;10644;48.834;10.088;2023-05-24T03:15:16;96914.75;;;16.55;51.61
20971;BME280;10644;48.834;10.088;2023-05-24T03:17:42;96912.38;;;16.41;51.68
20971;BME280;10644;48.834;10.088;2023-05-24T03:20:07;96908.16;;;16.27;51.91
20971;BME280;10644;48.834;10.088;2023-05-24T03:22:33;96900.16;;;16.30;51.77
20971;BME280;10644;48.834;10.088;2023-05-24T03:24:58;96913.06;;;16.43;52.03
20971;BME280;10644;48.834;10.088;2023-05-24T03:27:23;96914.78;;;16.31;51.67
20971;BME280;10644;48.834;10.088;2023-05-24T03:29:49;96924.22;;;16.20;52.38
20971;BME280;10644;48.834;10.088;2023-05-24T03:32:14;96925.16;;;16.19;51.94
20971;BME280;10644;48.834;10.088;2023-05-24T03:34:39;96924.19;;;16.09;52.35
20971;BME280;10644;48.834;10.088;2023-05-24T03:37:05;96913.13;;;16.07;52.67
20971;BME280;10644;48.834;10.088;2023-05-24T03:39:30;96906.66;;;15.78;52.84
20971;BME280;10644;48.834;10.088;2023-05-24T03:41:55;96916.78;;;15.68;53.34
20971;BME280;10644;48.834;10.088;2023-05-24T03:44:21;96914.88;;;15.83;53.00
20971;BME280;10644;48.834;10.088;2023-05-24T03:46:46;96915.66;;;15.96;52.88
20971;BME280;10644;48.834;10.088;2023-05-24T03:49:11;96904.13;;;15.89;52.95
20971;BME280;10644;48.834;10.088;2023-05-24T03:51:37;96913.81;;;15.85;52.92
20971;BME280;10644;48.834;10.088;2023-05-24T03:54:02;96910.53;;;15.83;53.27
20971;BME280;10644;48.834;10.088;2023-05-24T03:56:27;96914.06;;;15.82;53.20
20971;BME280;10644;48.834;10.088;2023-05-24T03:58:53;96904.16;;;15.76;53.00
20971;BME280;10644;48.834;10.088;2023-05-24T04:01:18;96909.91;;;15.92;53.09
20971;BME280;10644;48.834;10.088;2023-05-24T04:03:45;96919.13;;;16.07;52.58
20971;BME280;10644;48.834;10.088;2023-05-24T04:06:11;96918.34;;;16.18;52.51
20971;BME280;10644;48.834;10.088;2023-05-24T04:08:37;96910.31;;;16.10;52.74
20971;BME280;10644;48.834;10.088;2023-05-24T04:11:05;96911.88;;;15.89;53.14
20971;BME280;10644;48.834;10.088;2023-05-24T04:13:30;96913.03;;;15.85;53.44
20971;BME280;10644;48.834;10.088;2023-05-24T04:15:56;96922.50;;;15.84;53.66
20971;BME280;10644;48.834;10.088;2023-05-24T04:18:23;96910.69;;;15.93;53.17
20971;BME280;10644;48.834;10.088;2023-05-24T04:20:49;96901.16;;;16.06;53.12
20971;BME280;10644;48.834;10.088;2023-05-24T04:23:15;96901.13;;;15.82;53.68
20971;BME280;10644;48.834;10.088;2023-05-24T04:25:43;96898.69;;;15.20;55.01
20971;BME280;10644;48.834;10.088;2023-05-24T04:28:09;96905.19;;;15.13;55.60
20971;BME280;10644;48.834;10.088;2023-05-24T04:30:37;96899.53;;;15.33;54.95
20971;BME280;10644;48.834;10.088;2023-05-24T04:33:02;96904.13;;;15.53;54.62
20971;BME280;10644;48.834;10.088;2023-05-24T04:35:28;96910.69;;;15.69;54.27
20971;BME280;10644;48.834;10.088;2023-05-24T04:37:54;96908.94;;;15.70;54.33
20971;BME280;10644;48.834;10.088;2023-05-24T04:40:19;96907.25;;;15.81;53.84
20971;BME280;10644;48.834;10.088;2023-05-24T04:42:45;96908.06;;;15.82;53.83
20971;BME280;10644;48.834;10.088;2023-05-24T04:45:10;96915.50;;;15.86;53.61
20971;BME280;10644;48.834;10.088;2023-05-24T04:47:36;96914.88;;;15.83;54.05
20971;BME280;10644;48.834;10.088;2023-05-24T04:50:01;96904.16;;;15.76;53.54
20971;BME280;10644;48.834;10.088;2023-05-24T04:52:29;96901.78;;;15.50;54.78
20971;BME280;10644;48.834;10.088;2023-05-24T04:54:54;96919.69;;;15.64;54.59
20971;BME280;10644;48.834;10.088;2023-05-24T04:57:22;96916.78;;;15.68;54.42
20971;BME280;10644;48.834;10.088;2023-05-24T04:59:47;96915.91;;;15.80;53.91
20971;BME280;10644;48.834;10.088;2023-05-24T05:02:13;96914.69;;;15.73;54.34
20971;BME280;10644;48.834;10.088;2023-05-24T05:04:38;96917.00;;;15.65;54.50
20971;BME280;10644;48.834;10.088;2023-05-24T05:07:05;96918.75;;;15.65;54.28
20971;BME280;10644;48.834;10.088;2023-05-24T05:09:31;96932.44;;;15.42;55.21
20971;BME280;10644;48.834;10.088;2023-05-24T05:11:56;96940.78;;;15.45;55.23
20971;BME280;10644;48.834;10.088;2023-05-24T05:14:22;96937.41;;;15.45;55.42
20971;BME280;10644;48.834;10.088;2023-05-24T05:16:47;96948.63;;;15.56;54.82
20971;BME280;10644;48.834;10.088;2023-05-24T05:19:13;96928.38;;;15.63;54.60
20971;BME280;10644;48.834;10.088;2023-05-24T05:21:40;96935.66;;;15.81;54.03
20971;BME280;10644;48.834;10.088;2023-05-24T05:24:08;96934.31;;;15.76;53.98
20971;BME280;10644;48.834;10.088;2023-05-24T05:26:37;96924.59;;;15.79;54.27
20971;BME280;10644;48.834;10.088;2023-05-24T05:29:09;96917.25;;;15.86;53.81
20971;BME280;10644;48.834;10.088;2023-05-24T05:31:35;96932.66;;;15.87;53.52
20971;BME280;10644;48.834;10.088;2023-05-24T05:34:00;96922.53;;;15.72;54.23
20971;BME280;10644;48.834;10.088;2023-05-24T05:36:25;96938.13;;;15.47;54.74
20971;BME280;10644;48.834;10.088;2023-05-24T05:38:51;96935.00;;;15.54;54.91
20971;BME280;10644;48.834;10.088;2023-05-24T05:41:19;96923.84;;;15.54;55.00
20971;BME280;10644;48.834;10.088;2023-05-24T05:43:44;96922.84;;;15.44;54.48
20971;BME280;10644;48.834;10.088;2023-05-24T05:46:10;96934.16;;;15.54;54.53
20971;BME280;10644;48.834;10.088;2023-05-24T05:48:37;96920.31;;;15.55;54.01
20971;BME280;10644;48.834;10.088;2023-05-24T05:51:02;96913.84;;;15.49;54.60
20971;BME280;10644;48.834;10.088;2023-05-24T05:53:28;96919.72;;;15.51;54.66
20971;BME280;10644;48.834;10.088;2023-05-24T05:55:53;96917.63;;;15.69;53.85
20971;BME280;10644;48.834;10.088;2023-05-24T05:58:18;96912.41;;;15.81;53.49
20971;BME280;10644;48.834;10.088;2023-05-24T06:00:44;96917.75;;;15.91;54.12
20971;BME280;10644;48.834;10.088;2023-05-24T06:03:09;96909.28;;;15.89;53.29
20971;BME280;10644;48.834;10.088;2023-05-24T06:05:35;96913.22;;;15.21;54.16
20971;BME280;10644;48.834;10.088;2023-05-24T06:08:00;96934.19;;;15.04;54.66
20971;BME280;10644;48.834;10.088;2023-05-24T06:10:25;96927.16;;;15.18;54.18
20971;BME280;10644;48.834;10.088;2023-05-24T06:12:51;96925.94;;;15.24;53.86
20971;BME280;10644;48.834;10.088;2023-05-24T06:15:17;96926.16;;;14.96;54.25
20971;BME280;10644;48.834;10.088;2023-05-24T06:17:42;96918.28;;;14.47;55.49
20971;BME280;10644;48.834;10.088;2023-05-24T06:20:11;96924.47;;;14.70;55.00
20971;BME280;10644;48.834;10.088;2023-05-24T06:22:40;96916.84;;;14.81;54.49
20971;BME280;10644;48.834;10.088;2023-05-24T06:25:07;96939.34;;;14.79;54.81
20971;BME280;10644;48.834;10.088;2023-05-24T06:27:33;96925.94;;;14.74;54.67
20971;BME280;10644;48.834;10.088;2023-05-24T06:29:58;96934.19;;;14.79;54.50
20971;BME280;10644;48.834;10.088;2023-05-24T06:32:25;96932.13;;;14.84;54.69
20971;BME280;10644;48.834;10.088;2023-05-24T06:34:51;96929.25;;;14.88;54.37
20971;BME280;10644;48.834;10.088;2023-05-24T06:37:16;96928.31;;;14.77;54.69
20971;BME280;10644;48.834;10.088;2023-05-24T06:39:42;96943.47;;;14.69;55.10
20971;BME280;10644;48.834;10.088;2023-05-24T06:42:07;96943.69;;;14.66;55.07
20971;BME280;10644;48.834;10.088;2023-05-24T06:44:32;96940.97;;;14.67;55.12
20971;BME280;10644;48.834;10.088;2023-05-24T06:47:01;96945.16;;;15.07;56.16
20971;BME280;10644;48.834;10.088;2023-05-24T06:49:27;96941.53;;;15.35;56.06
20971;BME280;10644;48.834;10.088;2023-05-24T06:51:55;96942.00;;;15.65;54.01
20971;BME280;10644;48.834;10.088;2023-05-24T06:54:21;96935.34;;;15.73;53.10
20971;BME280;10644;48.834;10.088;2023-05-24T06:56:46;96943.59;;;15.91;53.14
20971;BME280;10644;48.834;10.088;2023-05-24T06:59:15;96948.94;;;15.88;52.53
20971;BME280;10644;48.834;10.088;2023-05-24T07:01:40;96955.41;;;15.70;52.70
20971;BME280;10644;48.834;10.088;2023-05-24T07:04:07;96954.78;;;15.79;54.14
20971;BME280;10644;48.834;10.088;2023-05-24T07:06:35;96959.34;;;15.99;52.70
20971;BME280;10644;48.834;10.088;2023-05-24T07:09:02;96969.16;;;16.06;51.97
20971;BME280;10644;48.834;10.088;2023-05-24T07:11:30;96973.44;;;16.18;52.59
20971;BME280;10644;48.834;10.088;2023-05-24T07:13:56;96970.97;;;16.17;51.76
20971;BME280;10644;48.834;10.088;2023-05-24T07:16:21;96975.25;;;16.41;51.72
20971;BME280;10644;48.834;10.088;2023-05-24T07:18:49;96968.00;;;16.57;50.87
20971;BME280;10644;48.834;10.088;2023-05-24T07:21:14;96966.41;;;16.67;50.43
20971;BME280;10644;48.834;10.088;2023-05-24T07:23:40;96968.84;;;16.58;50.93
20971;BME280;10644;48.834;10.088;2023-05-24T07:26:05;96978.06;;;16.26;51.72
20971;BME280;10644;48.834;10.088;2023-05-24T07:28:33;96974.25;;;16.31;51.09
20971;BME280;10644;48.834;10.088;2023-05-24T07:31:02;96979.19;;;16.34;50.55
20971;BME280;10644;48.834;10.088;2023-05-24T07:33:27;96981.88;;;16.09;50.99
20971;BME280;10644;48.834;10.088;2023-05-24T07:35:52;96984.47;;;16.09;51.73
20971;BME280;10644;48.834;10.088;2023-05-24T07:38:18;96978.97;;;16.14;50.72
20971;BME280;10644;48.834;10.088;2023-05-24T07:40:44;96992.63;;;15.67;51.79
20971;BME280;10644;48.834;10.088;2023-05-24T07:43:09;96987.44;;;15.67;51.04
20971;BME280;10644;48.834;10.088;2023-05-24T07:45:35;96980.44;;;15.57;50.83
20971;BME280;10644;48.834;10.088;2023-05-24T07:48:00;96995.38;;;15.77;50.65
20971;BME280;10644;48.834;10.088;2023-05-24T07:50:25;96989.13;;;15.56;50.53
20971;BME280;10644;48.834;10.088;2023-05-24T07:52:52;96998.38;;;15.83;50.24
20971;BME280;10644;48.834;10.088;2023-05-24T07:55:17;96993.03;;;15.61;50.24
20971;BME280;10644;48.834;10.088;2023-05-24T07:57:45;96998.84;;;15.52;51.11
20971;BME280;10644;48.834;10.088;2023-05-24T08:00:11;96993.69;;;15.52;51.96
20971;BME280;10644;48.834;10.088;2023-05-24T08:02:40;97013.50;;;15.52;51.63
20971;BME280;10644;48.834;10.088;2023-05-24T08:05:05;97006.03;;;15.72;51.63
20971;BME280;10644;48.834;10.088;2023-05-24T08:07:34;96997.06;;;16.14;50.81
20971;BME280;10644;48.834;10.088;2023-05-24T08:09:59;96994.41;;;16.03;50.80
20971;BME280;10644;48.834;10.088;2023-05-24T08:12:27;96995.56;;;16.22;50.21
20971;BME280;10644;48.834;10.088;2023-05-24T08:14:55;96994.69;;;16.34;52.21
20971;BME280;10644;48.834;10.088;2023-05-24T08:17:21;96999.09;;;16.45;50.12
20971;BME280;10644;48.834;10.088;2023-05-24T08:19:46;97000.28;;;16.41;51.64
20971;BME280;10644;48.834;10.088;2023-05-24T08:22:11;96995.94;;;16.41;50.04
20971;BME280;10644;48.834;10.088;2023-05-24T08:24:37;96997.88;;;16.38;49.42
20971;BME280;10644;48.834;10.088;2023-05-24T08:27:04;97011.19;;;16.21;51.19
20971;BME280;10644;48.834;10.088;2023-05-24T08:29:32;97004.94;;;16.00;49.72
20971;BME280;10644;48.834;10.088;2023-05-24T08:32:00;97002.00;;;15.81;50.11
20971;BME280;10644;48.834;10.088;2023-05-24T08:34:26;97011.81;;;15.88;50.08
20971;BME280;10644;48.834;10.088;2023-05-24T08:36:52;97007.88;;;15.83;50.28
20971;BME280;10644;48.834;10.088;2023-05-24T08:39:17;97007.06;;;15.70;50.51
20971;BME280;10644;48.834;10.088;2023-05-24T08:41:43;97004.38;;;15.84;50.34
20971;BME280;10644;48.834;10.088;2023-05-24T08:44:11;97014.03;;;16.05;49.86
20971;BME280;10644;48.834;10.088;2023-05-24T08:46:37;97009.53;;;15.84;50.45
20971;BME280;10644;48.834;10.088;2023-05-24T08:49:05;97018.75;;;15.75;49.83
20971;BME280;10644;48.834;10.088;2023-05-24T08:51:33;97025.16;;;15.82;50.04
20971;BME280;10644;48.834;10.088;2023-05-24T08:53:59;97031.03;;;15.72;50.47
20971;BME280;10644;48.834;10.088;2023-05-24T08:56:26;97023.78;;;15.77;50.09
20971;BME280;10644;48.834;10.088;2023-05-24T08:58:52;97017.44;;;16.06;50.09
20971;BME280;10644;48.834;10.088;2023-05-24T09:01:18;97016.84;;;16.38;49.43
20971;BME280;10644;48.834;10.088;2023-05-24T09:03:45;97006.97;;;16.67;48.30
20971;BME280;10644;48.834;10.088;2023-05-24T09:06:12;97009.50;;;16.56;48.88
20971;BME280;10644;48.834;10.088;2023-05-24T09:08:39;97009.44;;;16.45;48.81
20971;BME280;10644;48.834;10.088;2023-05-24T09:11:06;97014.41;;;16.48;48.36
20971;BME280;10644;48.834;10.088;2023-05-24T09:13:32;97006.50;;;16.26;49.01
20971;BME280;10644;48.834;10.088;2023-05-24T09:15:59;97021.00;;;16.16;49.88
20971;BME280;10644;48.834;10.088;2023-05-24T09:18:25;97020.38;;;16.25;49.16
20971;BME280;10644;48.834;10.088;2023-05-24T09:20:50;97025.09;;;16.43;48.90
20971;BME280;10644;48.834;10.088;2023-05-24T09:23:16;97029.41;;;16.55;49.04
20971;BME280;10644;48.834;10.088;2023-05-24T09:25:43;97027.66;;;16.67;49.22
20971;BME280;10644;48.834;10.088;2023-05-24T09:28:12;97031.19;;;16.66;48.23
20971;BME280;10644;48.834;10.088;2023-05-24T09:30:41;97033.34;;;16.72;48.26
20971;BME280;10644;48.834;10.088;2023-05-24T09:33:09;97031.97;;;16.55;48.75
20971;BME280;10644;48.834;10.088;2023-05-24T09:35:36;97020.53;;;16.47;48.77
20971;BME280;10644;48.834;10.088;2023-05-24T09:38:04;97032.63;;;16.70;48.89
20971;BME280;10644;48.834;10.088;2023-05-24T09:40:30;97025.38;;;16.75;48.32
20971;BME280;10644;48.834;10.088;2023-05-24T09:43:02;97023.72;;;16.74;48.44
20971;BME280;10644;48.834;10.088;2023-05-24T09:45:27;97027.00;;;16.76;48.57
20971;BME280;10644;48.834;10.088;2023-05-24T09:47:52;97027.00;;;16.76;48.31
20971;BME280;10644;48.834;10.088;2023-05-24T09:50:18;97029.84;;;16.84;48.24
20971;BME280;10644;48.834;10.088;2023-05-24T09:52:43;97024.56;;;16.85;47.97
20971;BME280;10644;48.834;10.088;2023-05-24T09:55:19;97030.25;;;16.90;47.71
20971;BME280;10644;48.834;10.088;2023-05-24T09:58:07;97019.69;;;16.93;47.75
20971;BME280;10644;48.834;10.088;2023-05-24T10:00:35;97029.09;;;16.71;47.75
20971;BME280;10644;48.834;10.088;2023-05-24T10:03:02;97039.34;;;16.49;48.57
20971;BME280;10644;48.834;10.088;2023-05-24T10:05:29;97044.75;;;16.33;48.36
20971;BME280;10644;48.834;10.088;2023-05-24T10:07:56;97045.44;;;16.12;48.54
20971;BME280;10644;48.834;10.088;2023-05-24T10:10:22;97037.91;;;15.96;49.15
20971;BME280;10644;48.834;10.088;2023-05-24T10:12:50;97039.50;;;16.22;48.95
20971;BME280;10644;48.834;10.088;2023-05-24T10:15:16;97035.44;;;16.31;48.32
20971;BME280;10644;48.834;10.088;2023-05-24T10:17:41;97042.03;;;15.99;49.53
20971;BME280;10644;48.834;10.088;2023-05-24T10:20:07;97041.09;;;16.00;49.05
20971;BME280;10644;48.834;10.088;2023-05-24T10:22:36;97044.50;;;16.13;49.35
20971;BME280;10644;48.834;10.088;2023-05-24T10:25:05;97039.19;;;16.39;48.86
20971;BME280;10644;48.834;10.088;2023-05-24T10:27:35;97033.44;;;16.11;48.91
20971;BME280;10644;48.834;10.088;2023-05-24T10:30:42;97026.88;;;15.94;49.51
20971;BME280;10644;48.834;10.088;2023-05-24T10:33:11;97035.94;;;16.00;49.31
20971;BME280;10644;48.834;10.088;2023-05-24T10:35:38;97024.38;;;15.93;49.46
20971;BME280;10644;48.834;10.088;2023-05-24T10:38:07;97006.44;;;16.15;49.20
20971;BME280;10644;48.834;10.088;2023-05-24T10:40:40;97009.91;;;16.03;49.31
20971;BME280;10644;48.834;10.088;2023-05-24T10:43:06;97011.28;;;15.96;49.86
20971;BME280;10644;48.834;10.088;2023-05-24T10:45:36;97010.38;;;15.72;50.59
20971;BME280;10644;48.834;10.088;2023-05-24T10:50:52;97010.59;;;15.81;49.68
20971;BME280;10644;48.834;10.088;2023-05-24T10:53:18;97012.00;;;15.85;50.02
20971;BME280;10644;48.834;10.088;2023-05-24T10:56:00;97023.69;;;15.91;49.98
20971;BME280;10644;48.834;10.088;2023-05-24T10:58:44;97022.97;;;15.76;49.16
20971;BME280;10644;48.834;10.088;2023-05-24T11:01:40;97018.84;;;15.74;49.32
20971;BME280;10644;48.834;10.088;2023-05-24T11:04:11;97016.97;;;15.88;48.88
20971;BME280;10644;48.834;10.088;2023-05-24T11:09:13;97010.94;;;16.00;48.46
20971;BME280;10644;48.834;10.088;2023-05-24T11:11:38;97007.16;;;16.17;48.71
20971;BME280;10644;48.834;10.088;2023-05-24T11:14:09;97009.34;;;16.23;48.21
20971;BME280;10644;48.834;10.088;2023-05-24T11:16:37;97007.66;;;16.22;48.34
20971;BME280;10644;48.834;10.088;2023-05-24T11:21:43;97017.28;;;16.20;48.67
20971;BME280;10644;48.834;10.088;2023-05-24T11:24:08;97018.72;;;16.24;48.13
20971;BME280;10644;48.834;10.088;2023-05-24T11:26:36;97000.09;;;16.31;48.20
20971;BME280;10644;48.834;10.088;2023-05-24T11:29:02;97004.25;;;16.21;48.49
20971;BME280;10644;48.834;10.088;2023-05-24T11:31:28;97000.56;;;16.13;48.21
20971;BME280;10644;48.834;10.088;2023-05-24T11:33:58;96997.16;;;16.12;48.18
20971;BME280;10644;48.834;10.088;2023-05-24T11:36:24;96999.69;;;16.25;47.80
20971;BME280;10644;48.834;10.088;2023-05-24T11:38:52;97000.34;;;16.16;48.69
20971;BME280;10644;48.834;10.088;2023-05-24T11:41:20;97003.88;;;16.15;47.72
20971;BME280;10644;48.834;10.088;2023-05-24T11:43:46;97003.16;;;16.13;47.62
20971;BME280;10644;48.834;10.088;2023-05-24T11:46:12;97014.06;;;15.93;48.23
20971;BME280;10644;48.834;10.088;2023-05-24T11:48:37;97026.44;;;16.00;47.92
20971;BME280;10644;48.834;10.088;2023-05-24T11:51:03;97020.75;;;16.08;47.72
20971;BME280;10644;48.834;10.088;2023-05-24T11:53:30;97020.03;;;16.06;47.61
20971;BME280;10644;48.834;10.088;2023-05-24T11:55:55;97023.69;;;15.91;48.09
20971;BME280;10644;48.834;10.088;2023-05-24T11:58:58;97019.03;;;16.19;48.04
20971;BME280;10644;48.834;10.088;2023-05-24T12:01:25;97016.44;;;16.19;47.40
20971;BME280;10644;48.834;10.088;2023-05-24T12:03:51;97018.75;;;16.11;46.39
20971;BME280;10644;48.834;10.088;2023-05-24T12:06:18;97017.72;;;16.14;46.19
20971;BME280;10644;48.834;10.088;2023-05-24T12:08:43;97025.91;;;16.08;46.35
20971;BME280;10644;48.834;10.088;2023-05-24T12:11:10;97017.03;;;16.12;46.01
20971;BME280;10644;48.834;10.088;2023-05-24T12:13:35;97008.81;;;16.18;45.74
20971;BME280;10644;48.834;10.088;2023-05-24T12:16:05;97014.16;;;16.27;46.07
20971;BME280;10644;48.834;10.088;2023-05-24T12:18:30;97010.00;;;16.37;45.98
20971;BME280;10644;48.834;10.088;2023-05-24T12:20:56;97010.00;;;16.37;46.37
20971;BME280;10644;48.834;10.088;2023-05-24T12:23:25;97014.63;;;16.45;45.93
20971;BME280;10644;48.834;10.088;2023-05-24T12:26:00;97012.75;;;16.70;45.89
20971;BME280;10644;48.834;10.088;2023-05-24T12:28:26;97015.00;;;16.75;44.79
20971;BME280;10644;48.834;10.088;2023-05-24T12:30:52;97022.94;;;16.61;45.47
20971;BME280;10644;48.834;10.088;2023-05-24T12:33:18;97019.59;;;16.48;45.09
20971;BME280;10644;48.834;10.088;2023-05-24T12:35:45;97011.00;;;16.71;44.09
20971;BME280;10644;48.834;10.088;2023-05-24T12:38:11;96999.75;;;16.48;43.85
20971;BME280;10644;48.834;10.088;2023-05-24T12:40:40;96993.16;;;16.90;44.24
20971;BME280;10644;48.834;10.088;2023-05-24T12:43:08;97003.41;;;17.37;43.55
20971;BME280;10644;48.834;10.088;2023-05-24T12:45:34;96993.56;;;17.75;42.09
20971;BME280;10644;48.834;10.088;2023-05-24T12:48:01;96996.34;;;18.05;42.40
20971;BME280;10644;48.834;10.088;2023-05-24T12:50:27;96998.66;;;18.41;41.15
20971;BME280;10644;48.834;10.088;2023-05-24T12:52:52;96981.69;;;18.37;39.77
20971;BME280;10644;48.834;10.088;2023-05-24T12:55:19;96982.19;;;18.62;39.60
20971;BME280;10644;48.834;10.088;2023-05-24T12:57:47;96971.31;;;19.09;39.16
20971;BME280;10644;48.834;10.088;2023-05-24T13:00:18;96975.88;;;18.76;39.59
20971;BME280;10644;48.834;10.088;2023-05-24T13:02:43;96967.94;;;18.57;39.01
20971;BME280;10644;48.834;10.088;2023-05-24T13:05:09;96973.28;;;18.76;39.20
20971;BME280;10644;48.834;10.088;2023-05-24T13:07:35;96969.13;;;19.05;38.14
20971;BME280;10644;48.834;10.088;2023-05-24T13:10:00;96952.47;;;19.28;39.52
20971;BME280;10644;48.834;10.088;2023-05-24T13:12:25;96963.34;;;19.42;38.47